sensor_id;sensor_type;location;lat;lon;timestamp;temperature;humidity
12303;DHT22;6214;48.012;7.862;2023-06-22T00:01:20;22.00;99.90
12303;DHT22;6214;48.012;7.862;2023-06-22T00:03:48;22.10;99.90
12303;DHT22;6214;48.012;7.862;2023-06-22T00:06:15;22.30;99.90
12303;DHT22;6214;48.012;7.862;2023-06-22T00:08:42;22.20;99.90
12303;DHT22;6214;48.012;7.862;2023-06-22T00:11:09;22.10;99.90
12303;DHT22;6214;48.012;7.862;2023-06-22T00:13:35;22.10;99.90
12303;DHT22;6214;48.012;7.862;2023-06-22T00:16:03;22.00;99.90
12303;DHT22;6214;48.012;7.862;2023-06-22T00:18:29;22.00;99.90
12303;DHT22;6214;48.012;7.862;2023-06-22T00:20:57;22.00;99.90
12303;DHT22;6214;48.012;7.862;2023-06-22T00:23:25;22.00;99.90
12303;DHT22;6214;48.012;7.862;2023-06-22T00:25:53;22.00;99.90
12303;DHT22;6214;48.012;7.862;2023-06-22T00:28:19;22.00;99.90
12303;DHT22;6214;48.012;7.862;2023-06-22T00:30:48;21.90;99.90
12303;DHT22;6214;48.012;7.862;2023-06-22T00:33:15;21.80;99.90
12303;DHT22;6214;48.012;7.862;2023-06-22T00:35:43;21.70;99.90
12303;DHT22;6214;48.012;7.862;2023-06-22T00:38:10;21.70;99.90
12303;DHT22;6214;48.012;7.862;2023-06-22T00:40:37;21.70;99.90
12303;DHT22;6214;48.012;7.862;2023-06-22T00:43:05;21.90;99.90
12303;DHT22;6214;48.012;7.862;2023-06-22T00:45:33;21.80;99.90
12303;DHT22;6214;48.012;7.862;2023-06-22T00:48:00;21.70;99.90
12303;DHT22;6214;48.012;7.862;2023-06-22T00:50:30;21.60;99.90
12303;DHT22;6214;48.012;7.862;2023-06-22T00:53:08;21.70;99.90
12303;DHT22;6214;48.012;7.862;2023-06-22T00:55:46;21.70;99.90
12303;DHT22;6214;48.012;7.862;2023-06-22T00:58:14;21.60;99.90
12303;DHT22;6214;48.012;7.862;2023-06-22T01:00:41;21.70;99.90
12303;DHT22;6214;48.012;7.862;2023-06-22T01:03:08;21.60;99.90
12303;DHT22;6214;48.012;7.862;2023-06-22T01:05:37;21.50;99.90
12303;DHT22;6214;48.012;7.862;2023-06-22T01:08:23;21.30;99.90
12303;DHT22;6214;48.012;7.862;2023-06-22T01:11:13;21.20;99.90
12303;DHT22;6214;48.012;7.862;2023-06-22T01:14:10;21.40;99.90
12303;DHT22;6214;48.012;7.862;2023-06-22T01:16:41;21.40;99.90
12303;DHT22;6214;48.012;7.862;2023-06-22T01:19:30;21.40;99.90
12303;DHT22;6214;48.012;7.862;2023-06-22T01:22:01;21.40;99.90
12303;DHT22;6214;48.012;7.862;2023-06-22T01:24:40;21.40;99.90
12303;DHT22;6214;48.012;7.862;2023-06-22T01:27:28;21.30;99.90
12303;DHT22;6214;48.012;7.862;2023-06-22T01:29:59;21.30;99.90
12303;DHT22;6214;48.012;7.862;2023-06-22T01:32:32;21.40;99.90
12303;DHT22;6214;48.012;7.862;2023-06-22T01:35:01;21.40;99.90
12303;DHT22;6214;48.012;7.862;2023-06-22T01:37:30;21.40;99.90
12303;DHT22;6214;48.012;7.862;2023-06-22T01:39:59;21.40;99.90
12303;DHT22;6214;48.012;7.862;2023-06-22T01:42:26;21.50;99.90
12303;DHT22;6214;48.012;7.862;2023-06-22T01:44:53;21.60;99.90
12303;DHT22;6214;48.012;7.862;2023-06-22T01:47:22;21.60;99.90
12303;DHT22;6214;48.012;7.862;2023-06-22T01:49:49;21.60;99.90
12303;DHT22;6214;48.012;7.862;2023-06-22T01:52:18;21.50;99.90
12303;DHT22;6214;48.012;7.862;2023-06-22T01:54:47;21.40;99.90
12303;DHT22;6214;48.012;7.862;2023-06-22T01:57:15;21.50;99.90
12303;DHT22;6214;48.012;7.862;2023-06-22T01:59:48;21.50;99.90
12303;DHT22;6214;48.012;7.862;2023-06-22T02:02:20;21.40;99.90
12303;DHT22;6214;48.012;7.862;2023-06-22T02:04:57;21.40;99.90
12303;DHT22;6214;48.012;7.862;2023-06-22T02:07:31;21.30;99.90
12303;DHT22;6214;48.012;7.862;2023-06-22T02:09:59;21.40;99.90
12303;DHT22;6214;48.012;7.862;2023-06-22T02:12:28;21.10;99.90
12303;DHT22;6214;48.012;7.862;2023-06-22T02:14:56;21.00;99.90
12303;DHT22;6214;48.012;7.862;2023-06-22T02:17:24;21.00;99.90
12303;DHT22;6214;48.012;7.862;2023-06-22T02:19:52;21.10;99.90
12303;DHT22;6214;48.012;7.862;2023-06-22T02:22:19;21.00;99.90
12303;DHT22;6214;48.012;7.862;2023-06-22T02:24:45;21.10;99.90
12303;DHT22;6214;48.012;7.862;2023-06-22T02:27:12;20.90;99.90
12303;DHT22;6214;48.012;7.862;2023-06-22T02:29:39;21.10;99.90
12303;DHT22;6214;48.012;7.862;2023-06-22T02:32:06;21.00;99.90
12303;DHT22;6214;48.012;7.862;2023-06-22T02:34:33;21.10;99.90
12303;DHT22;6214;48.012;7.862;2023-06-22T02:37:00;21.10;99.90
12303;DHT22;6214;48.012;7.862;2023-06-22T02:39:29;20.90;99.90
12303;DHT22;6214;48.012;7.862;2023-06-22T02:41:56;20.80;99.90
12303;DHT22;6214;48.012;7.862;2023-06-22T02:44:23;20.90;99.90
12303;DHT22;6214;48.012;7.862;2023-06-22T02:46:50;21.00;99.90
12303;DHT22;6214;48.012;7.862;2023-06-22T02:49:16;20.90;99.90
12303;DHT22;6214;48.012;7.862;2023-06-22T02:51:47;20.80;99.90
12303;DHT22;6214;48.012;7.862;2023-06-22T02:54:14;20.80;99.90
12303;DHT22;6214;48.012;7.862;2023-06-22T02:56:42;20.70;99.90
12303;DHT22;6214;48.012;7.862;2023-06-22T02:59:10;20.50;99.90
12303;DHT22;6214;48.012;7.862;2023-06-22T03:01:37;20.40;99.90
12303;DHT22;6214;48.012;7.862;2023-06-22T03:04:07;20.40;99.90
12303;DHT22;6214;48.012;7.862;2023-06-22T03:06:35;20.50;99.90
12303;DHT22;6214;48.012;7.862;2023-06-22T03:09:04;20.50;99.90
12303;DHT22;6214;48.012;7.862;2023-06-22T03:11:32;20.60;99.90
12303;DHT22;6214;48.012;7.862;2023-06-22T03:14:00;20.50;99.90
12303;DHT22;6214;48.012;7.862;2023-06-22T03:16:28;20.50;99.90
12303;DHT22;6214;48.012;7.862;2023-06-22T03:18:55;20.40;99.90
12303;DHT22;6214;48.012;7.862;2023-06-22T03:21:23;20.40;99.90
12303;DHT22;6214;48.012;7.862;2023-06-22T03:23:50;20.30;99.90
12303;DHT22;6214;48.012;7.862;2023-06-22T03:26:18;20.40;99.90
12303;DHT22;6214;48.012;7.862;2023-06-22T03:28:45;20.30;99.90
12303;DHT22;6214;48.012;7.862;2023-06-22T03:31:12;20.30;99.90
12303;DHT22;6214;48.012;7.862;2023-06-22T03:33:39;20.30;99.90
12303;DHT22;6214;48.012;7.862;2023-06-22T03:36:06;20.20;99.90
12303;DHT22;6214;48.012;7.862;2023-06-22T03:38:32;20.30;99.90
12303;DHT22;6214;48.012;7.862;2023-06-22T03:40:59;20.20;99.90
12303;DHT22;6214;48.012;7.862;2023-06-22T03:43:26;20.20;99.90
12303;DHT22;6214;48.012;7.862;2023-06-22T03:45:53;20.20;99.90
12303;DHT22;6214;48.012;7.862;2023-06-22T03:48:20;20.30;99.90
12303;DHT22;6214;48.012;7.862;2023-06-22T03:50:47;20.40;99.90
12303;DHT22;6214;48.012;7.862;2023-06-22T03:53:13;20.50;99.90
12303;DHT22;6214;48.012;7.862;2023-06-22T03:55:51;20.40;99.90
12303;DHT22;6214;48.012;7.862;2023-06-22T03:58:19;20.30;99.90
12303;DHT22;6214;48.012;7.862;2023-06-22T04:00:47;20.40;99.90
12303;DHT22;6214;48.012;7.862;2023-06-22T04:03:14;20.40;99.90
12303;DHT22;6214;48.012;7.862;2023-06-22T04:05:42;20.20;99.90
12303;DHT22;6214;48.012;7.862;2023-06-22T04:08:09;20.20;99.90
12303;DHT22;6214;48.012;7.862;2023-06-22T04:10:36;20.30;99.90
12303;DHT22;6214;48.012;7.862;2023-06-22T04:13:03;20.30;99.90
12303;DHT22;6214;48.012;7.862;2023-06-22T04:15:29;20.30;99.90
12303;DHT22;6214;48.012;7.862;2023-06-22T04:17:56;20.30;99.90
12303;DHT22;6214;48.012;7.862;2023-06-22T04:20:24;20.50;99.90
12303;DHT22;6214;48.012;7.862;2023-06-22T04:22:55;20.60;99.90
12303;DHT22;6214;48.012;7.862;2023-06-22T04:25:23;20.60;99.90
12303;DHT22;6214;48.012;7.862;2023-06-22T04:27:50;20.60;99.90
12303;DHT22;6214;48.012;7.862;2023-06-22T04:30:17;20.60;99.90
12303;DHT22;6214;48.012;7.862;2023-06-22T04:32:44;20.50;99.90
12303;DHT22;6214;48.012;7.862;2023-06-22T04:35:12;20.60;99.90
12303;DHT22;6214;48.012;7.862;2023-06-22T04:37:38;20.60;99.90
12303;DHT22;6214;48.012;7.862;2023-06-22T04:40:06;20.50;99.90
12303;DHT22;6214;48.012;7.862;2023-06-22T04:42:34;20.50;99.90
12303;DHT22;6214;48.012;7.862;2023-06-22T04:45:03;20.60;99.90
12303;DHT22;6214;48.012;7.862;2023-06-22T04:47:30;20.80;99.90
12303;DHT22;6214;48.012;7.862;2023-06-22T04:49:57;20.70;99.90
12303;DHT22;6214;48.012;7.862;2023-06-22T04:52:23;20.80;99.90
12303;DHT22;6214;48.012;7.862;2023-06-22T04:54:51;20.90;99.90
12303;DHT22;6214;48.012;7.862;2023-06-22T04:57:22;21.00;99.90
12303;DHT22;6214;48.012;7.862;2023-06-22T04:59:59;21.00;99.90
12303;DHT22;6214;48.012;7.862;2023-06-22T05:02:39;21.00;99.90
12303;DHT22;6214;48.012;7.862;2023-06-22T05:05:06;21.20;99.90
12303;DHT22;6214;48.012;7.862;2023-06-22T05:07:34;21.30;99.90
12303;DHT22;6214;48.012;7.862;2023-06-22T05:10:02;21.30;99.90
12303;DHT22;6214;48.012;7.862;2023-06-22T05:12:30;21.40;99.90
12303;DHT22;6214;48.012;7.862;2023-06-22T05:14:57;21.30;99.90
12303;DHT22;6214;48.012;7.862;2023-06-22T05:17:24;21.50;99.90
12303;DHT22;6214;48.012;7.862;2023-06-22T05:19:52;21.40;99.90
12303;DHT22;6214;48.012;7.862;2023-06-22T05:22:19;21.40;99.90
12303;DHT22;6214;48.012;7.862;2023-06-22T05:24:46;21.60;99.90
12303;DHT22;6214;48.012;7.862;2023-06-22T05:27:13;21.60;99.90
12303;DHT22;6214;48.012;7.862;2023-06-22T05:29:40;21.70;99.90
12303;DHT22;6214;48.012;7.862;2023-06-22T05:32:09;21.70;99.90
12303;DHT22;6214;48.012;7.862;2023-06-22T05:34:35;21.90;99.90
12303;DHT22;6214;48.012;7.862;2023-06-22T05:37:03;22.10;99.90
12303;DHT22;6214;48.012;7.862;2023-06-22T05:39:30;22.10;99.90
12303;DHT22;6214;48.012;7.862;2023-06-22T05:41:56;22.40;99.90
12303;DHT22;6214;48.012;7.862;2023-06-22T05:44:23;22.50;99.90
12303;DHT22;6214;48.012;7.862;2023-06-22T05:46:50;22.40;99.90
12303;DHT22;6214;48.012;7.862;2023-06-22T05:49:17;22.60;99.90
12303;DHT22;6214;48.012;7.862;2023-06-22T05:51:44;22.50;99.90
12303;DHT22;6214;48.012;7.862;2023-06-22T05:54:11;22.50;99.90
12303;DHT22;6214;48.012;7.862;2023-06-22T05:56:40;22.80;99.90
12303;DHT22;6214;48.012;7.862;2023-06-22T05:59:07;22.70;99.90
12303;DHT22;6214;48.012;7.862;2023-06-22T06:01:33;22.90;99.90
12303;DHT22;6214;48.012;7.862;2023-06-22T06:04:03;23.00;99.90
12303;DHT22;6214;48.012;7.862;2023-06-22T06:06:31;23.10;99.90
12303;DHT22;6214;48.012;7.862;2023-06-22T06:08:58;23.10;99.90
12303;DHT22;6214;48.012;7.862;2023-06-22T06:11:26;23.20;99.90
12303;DHT22;6214;48.012;7.862;2023-06-22T06:13:53;23.40;99.90
12303;DHT22;6214;48.012;7.862;2023-06-22T06:16:20;23.50;99.90
12303;DHT22;6214;48.012;7.862;2023-06-22T06:18:46;23.90;99.90
12303;DHT22;6214;48.012;7.862;2023-06-22T06:21:15;23.90;99.90
12303;DHT22;6214;48.012;7.862;2023-06-22T06:23:42;24.00;99.90
12303;DHT22;6214;48.012;7.862;2023-06-22T06:26:09;23.90;99.90
12303;DHT22;6214;48.012;7.862;2023-06-22T06:28:36;24.20;99.90
12303;DHT22;6214;48.012;7.862;2023-06-22T06:31:03;24.20;99.90
12303;DHT22;6214;48.012;7.862;2023-06-22T06:33:34;24.50;99.90
12303;DHT22;6214;48.012;7.862;2023-06-22T06:36:01;24.90;99.90
12303;DHT22;6214;48.012;7.862;2023-06-22T06:38:32;25.10;99.90
12303;DHT22;6214;48.012;7.862;2023-06-22T06:40:59;25.60;99.90
12303;DHT22;6214;48.012;7.862;2023-06-22T06:43:26;25.70;99.90
12303;DHT22;6214;48.012;7.862;2023-06-22T06:45:53;25.40;99.90
12303;DHT22;6214;48.012;7.862;2023-06-22T06:48:20;25.30;99.90
12303;DHT22;6214;48.012;7.862;2023-06-22T06:50:47;25.10;99.90
12303;DHT22;6214;48.012;7.862;2023-06-22T06:53:14;24.80;99.90
12303;DHT22;6214;48.012;7.862;2023-06-22T06:55:40;25.00;99.90
12303;DHT22;6214;48.012;7.862;2023-06-22T06:58:07;24.90;99.90
12303;DHT22;6214;48.012;7.862;2023-06-22T07:00:36;25.00;99.90
12303;DHT22;6214;48.012;7.862;2023-06-22T07:03:03;25.30;99.90
12303;DHT22;6214;48.012;7.862;2023-06-22T07:05:30;25.20;99.90
12303;DHT22;6214;48.012;7.862;2023-06-22T07:07:57;25.20;99.90
12303;DHT22;6214;48.012;7.862;2023-06-22T07:10:24;24.90;99.90
12303;DHT22;6214;48.012;7.862;2023-06-22T07:12:51;24.70;99.90
12303;DHT22;6214;48.012;7.862;2023-06-22T07:15:18;24.50;99.90
12303;DHT22;6214;48.012;7.862;2023-06-22T07:17:45;25.00;99.90
12303;DHT22;6214;48.012;7.862;2023-06-22T07:20:12;27.10;99.90
12303;DHT22;6214;48.012;7.862;2023-06-22T07:22:41;28.60;99.90
12303;DHT22;6214;48.012;7.862;2023-06-22T07:25:09;27.90;99.90
12303;DHT22;6214;48.012;7.862;2023-06-22T07:27:39;28.20;99.90
12303;DHT22;6214;48.012;7.862;2023-06-22T07:30:10;27.60;99.90
12303;DHT22;6214;48.012;7.862;2023-06-22T07:32:37;27.10;99.90
12303;DHT22;6214;48.012;7.862;2023-06-22T07:35:05;26.70;99.90
12303;DHT22;6214;48.012;7.862;2023-06-22T07:37:33;26.30;99.90
12303;DHT22;6214;48.012;7.862;2023-06-22T07:40:02;26.00;99.90
12303;DHT22;6214;48.012;7.862;2023-06-22T07:42:32;25.80;99.90
12303;DHT22;6214;48.012;7.862;2023-06-22T07:45:00;25.60;99.90
12303;DHT22;6214;48.012;7.862;2023-06-22T07:47:27;25.00;99.90
12303;DHT22;6214;48.012;7.862;2023-06-22T07:49:58;24.50;99.90
12303;DHT22;6214;48.012;7.862;2023-06-22T07:52:30;24.10;99.90
12303;DHT22;6214;48.012;7.862;2023-06-22T07:54:57;24.10;99.90
12303;DHT22;6214;48.012;7.862;2023-06-22T07:57:24;24.60;99.90
12303;DHT22;6214;48.012;7.862;2023-06-22T08:00:04;25.40;99.90
12303;DHT22;6214;48.012;7.862;2023-06-22T08:02:49;26.50;99.90
12303;DHT22;6214;48.012;7.862;2023-06-22T08:05:17;27.20;99.90
12303;DHT22;6214;48.012;7.862;2023-06-22T08:07:49;27.40;99.90
12303;DHT22;6214;48.012;7.862;2023-06-22T08:10:16;27.50;99.90
12303;DHT22;6214;48.012;7.862;2023-06-22T08:12:43;27.50;99.90
12303;DHT22;6214;48.012;7.862;2023-06-22T08:15:10;27.70;99.90
12303;DHT22;6214;48.012;7.862;2023-06-22T08:17:37;27.50;99.90
12303;DHT22;6214;48.012;7.862;2023-06-22T08:20:06;27.50;99.90
12303;DHT22;6214;48.012;7.862;2023-06-22T08:22:38;27.40;99.90
12303;DHT22;6214;48.012;7.862;2023-06-22T08:25:06;27.20;99.90
12303;DHT22;6214;48.012;7.862;2023-06-22T08:27:33;27.10;99.90
12303;DHT22;6214;48.012;7.862;2023-06-22T08:30:00;27.20;99.90
12303;DHT22;6214;48.012;7.862;2023-06-22T08:32:28;27.30;99.90
12303;DHT22;6214;48.012;7.862;2023-06-22T08:34:56;27.40;99.90
12303;DHT22;6214;48.012;7.862;2023-06-22T08:37:23;28.40;99.90
12303;DHT22;6214;48.012;7.862;2023-06-22T08:39:51;29.40;99.90
12303;DHT22;6214;48.012;7.862;2023-06-22T08:42:18;30.00;99.90
12303;DHT22;6214;48.012;7.862;2023-06-22T08:44:45;30.20;99.90
12303;DHT22;6214;48.012;7.862;2023-06-22T08:47:12;30.70;99.90
12303;DHT22;6214;48.012;7.862;2023-06-22T08:49:38;30.60;99.90
12303;DHT22;6214;48.012;7.862;2023-06-22T08:52:06;30.30;99.90
12303;DHT22;6214;48.012;7.862;2023-06-22T08:54:34;29.80;99.90
12303;DHT22;6214;48.012;7.862;2023-06-22T08:57:02;29.70;99.90
12303;DHT22;6214;48.012;7.862;2023-06-22T08:59:28;29.10;99.90
12303;DHT22;6214;48.012;7.862;2023-06-22T09:01:55;28.70;99.90
12303;DHT22;6214;48.012;7.862;2023-06-22T09:04:24;28.60;99.90
12303;DHT22;6214;48.012;7.862;2023-06-22T09:06:51;28.10;99.90
12303;DHT22;6214;48.012;7.862;2023-06-22T09:09:19;28.00;99.90
12303;DHT22;6214;48.012;7.862;2023-06-22T09:11:45;28.00;99.90
12303;DHT22;6214;48.012;7.862;2023-06-22T09:14:12;28.60;99.90
12303;DHT22;6214;48.012;7.862;2023-06-22T09:16:39;29.30;99.90
12303;DHT22;6214;48.012;7.862;2023-06-22T09:19:06;29.70;99.90
12303;DHT22;6214;48.012;7.862;2023-06-22T09:21:33;30.30;99.90
12303;DHT22;6214;48.012;7.862;2023-06-22T09:24:00;30.90;99.90
12303;DHT22;6214;48.012;7.862;2023-06-22T09:26:27;31.90;99.90
12303;DHT22;6214;48.012;7.862;2023-06-22T09:28:54;32.60;99.90
12303;DHT22;6214;48.012;7.862;2023-06-22T09:31:21;33.00;99.90
12303;DHT22;6214;48.012;7.862;2023-06-22T09:33:53;33.80;99.90
12303;DHT22;6214;48.012;7.862;2023-06-22T09:36:21;33.40;99.90
12303;DHT22;6214;48.012;7.862;2023-06-22T09:38:49;32.80;99.90
12303;DHT22;6214;48.012;7.862;2023-06-22T09:41:22;33.40;99.90
12303;DHT22;6214;48.012;7.862;2023-06-22T09:43:49;33.30;99.90
12303;DHT22;6214;48.012;7.862;2023-06-22T09:46:19;33.00;99.90
12303;DHT22;6214;48.012;7.862;2023-06-22T09:48:48;32.60;99.90
12303;DHT22;6214;48.012;7.862;2023-06-22T09:51:15;32.20;99.90
12303;DHT22;6214;48.012;7.862;2023-06-22T09:53:44;32.40;99.90
12303;DHT22;6214;48.012;7.862;2023-06-22T09:56:10;33.00;99.90
12303;DHT22;6214;48.012;7.862;2023-06-22T09:58:43;33.30;99.90
12303;DHT22;6214;48.012;7.862;2023-06-22T10:01:10;33.30;99.90
12303;DHT22;6214;48.012;7.862;2023-06-22T10:03:37;33.10;99.90
12303;DHT22;6214;48.012;7.862;2023-06-22T10:06:04;32.80;99.90
12303;DHT22;6214;48.012;7.862;2023-06-22T10:08:31;32.60;99.90
12303;DHT22;6214;48.012;7.862;2023-06-22T10:10:58;32.40;99.90
12303;DHT22;6214;48.012;7.862;2023-06-22T10:13:25;31.90;99.90
12303;DHT22;6214;48.012;7.862;2023-06-22T10:15:52;31.90;99.90
12303;DHT22;6214;48.012;7.862;2023-06-22T10:18:19;31.90;99.90
12303;DHT22;6214;48.012;7.862;2023-06-22T10:20:50;31.90;99.90
12303;DHT22;6214;48.012;7.862;2023-06-22T10:23:20;31.90;99.90
12303;DHT22;6214;48.012;7.862;2023-06-22T10:25:48;32.10;99.90
12303;DHT22;6214;48.012;7.862;2023-06-22T10:28:15;31.80;99.90
12303;DHT22;6214;48.012;7.862;2023-06-22T10:30:42;31.20;99.90
12303;DHT22;6214;48.012;7.862;2023-06-22T10:33:10;31.00;99.90
12303;DHT22;6214;48.012;7.862;2023-06-22T10:35:38;30.90;99.90
12303;DHT22;6214;48.012;7.862;2023-06-22T10:38:05;30.90;99.90
12303;DHT22;6214;48.012;7.862;2023-06-22T10:40:32;30.70;99.90
12303;DHT22;6214;48.012;7.862;2023-06-22T10:42:59;30.50;99.90
12303;DHT22;6214;48.012;7.862;2023-06-22T10:45:26;30.30;99.90
12303;DHT22;6214;48.012;7.862;2023-06-22T10:47:55;30.20;99.90
12303;DHT22;6214;48.012;7.862;2023-06-22T10:50:22;30.00;99.90
12303;DHT22;6214;48.012;7.862;2023-06-22T10:52:51;29.90;99.90
12303;DHT22;6214;48.012;7.862;2023-06-22T10:55:18;29.90;99.90
12303;DHT22;6214;48.012;7.862;2023-06-22T10:57:45;29.90;99.90
12303;DHT22;6214;48.012;7.862;2023-06-22T11:00:14;29.90;99.90
12303;DHT22;6214;48.012;7.862;2023-06-22T11:02:42;30.20;99.90
12303;DHT22;6214;48.012;7.862;2023-06-22T11:05:09;30.60;99.90
12303;DHT22;6214;48.012;7.862;2023-06-22T11:07:37;30.80;99.90
12303;DHT22;6214;48.012;7.862;2023-06-22T11:10:09;30.80;99.90
12303;DHT22;6214;48.012;7.862;2023-06-22T11:12:36;30.80;99.90
12303;DHT22;6214;48.012;7.862;2023-06-22T11:15:03;31.00;99.90
12303;DHT22;6214;48.012;7.862;2023-06-22T11:17:30;31.10;99.90
12303;DHT22;6214;48.012;7.862;2023-06-22T11:19:57;31.20;99.90
12303;DHT22;6214;48.012;7.862;2023-06-22T11:22:24;31.20;99.90
12303;DHT22;6214;48.012;7.862;2023-06-22T11:24:51;31.20;99.90
12303;DHT22;6214;48.012;7.862;2023-06-22T11:27:18;31.20;99.90
12303;DHT22;6214;48.012;7.862;2023-06-22T11:29:45;31.10;99.90
12303;DHT22;6214;48.012;7.862;2023-06-22T11:32:11;31.20;99.90
12303;DHT22;6214;48.012;7.862;2023-06-22T11:34:40;31.30;99.90
12303;DHT22;6214;48.012;7.862;2023-06-22T11:37:07;31.30;99.90
12303;DHT22;6214;48.012;7.862;2023-06-22T11:39:34;31.20;99.90
12303;DHT22;6214;48.012;7.862;2023-06-22T11:42:13;31.10;99.90
12303;DHT22;6214;48.012;7.862;2023-06-22T11:44:40;30.90;99.90
12303;DHT22;6214;48.012;7.862;2023-06-22T11:47:07;30.80;99.90
12303;DHT22;6214;48.012;7.862;2023-06-22T11:49:34;30.60;99.90
12303;DHT22;6214;48.012;7.862;2023-06-22T11:52:00;30.60;99.90
12303;DHT22;6214;48.012;7.862;2023-06-22T11:54:27;30.50;99.90
12303;DHT22;6214;48.012;7.862;2023-06-22T11:56:54;30.60;99.90
12303;DHT22;6214;48.012;7.862;2023-06-22T11:59:21;30.70;99.90
12303;DHT22;6214;48.012;7.862;2023-06-22T12:01:48;30.70;99.90
12303;DHT22;6214;48.012;7.862;2023-06-22T12:04:17;30.50;99.90
12303;DHT22;6214;48.012;7.862;2023-06-22T12:06:44;30.40;99.90
12303;DHT22;6214;48.012;7.862;2023-06-22T12:09:11;30.40;99.90
12303;DHT22;6214;48.012;7.862;2023-06-22T12:11:40;30.30;99.90
12303;DHT22;6214;48.012;7.862;2023-06-22T12:14:07;30.40;99.90
12303;DHT22;6214;48.012;7.862;2023-06-22T12:16:33;30.40;99.90
12303;DHT22;6214;48.012;7.862;2023-06-22T12:19:00;30.40;99.90
12303;DHT22;6214;48.012;7.862;2023-06-22T12:21:27;30.30;99.90
12303;DHT22;6214;48.012;7.862;2023-06-22T12:23:55;30.30;99.90
12303;DHT22;6214;48.012;7.862;2023-06-22T12:26:22;30.40;99.90
12303;DHT22;6214;48.012;7.862;2023-06-22T12:28:49;30.40;99.90
12303;DHT22;6214;48.012;7.862;2023-06-22T12:31:16;30.20;99.90
12303;DHT22;6214;48.012;7.862;2023-06-22T12:33:43;29.90;99.90
12303;DHT22;6214;48.012;7.862;2023-06-22T12:36:10;29.50;99.90
12303;DHT22;6214;48.012;7.862;2023-06-22T12:38:37;29.20;99.90
12303;DHT22;6214;48.012;7.862;2023-06-22T12:41:04;29.00;99.90
12303;DHT22;6214;48.012;7.862;2023-06-22T12:43:30;28.80;99.90
12303;DHT22;6214;48.012;7.862;2023-06-22T12:45:57;28.80;99.90
12303;DHT22;6214;48.012;7.862;2023-06-22T12:48:26;28.90;99.90
12303;DHT22;6214;48.012;7.862;2023-06-22T12:50:53;28.80;99.90
12303;DHT22;6214;48.012;7.862;2023-06-22T12:53:21;28.70;99.90
12303;DHT22;6214;48.012;7.862;2023-06-22T12:55:50;28.80;99.90
12303;DHT22;6214;48.012;7.862;2023-06-22T12:58:17;28.80;99.90
12303;DHT22;6214;48.012;7.862;2023-06-22T13:00:43;28.80;99.90
12303;DHT22;6214;48.012;7.862;2023-06-22T13:03:10;28.70;99.90
12303;DHT22;6214;48.012;7.862;2023-06-22T13:05:37;28.70;99.90
12303;DHT22;6214;48.012;7.862;2023-06-22T13:08:05;28.80;99.90
12303;DHT22;6214;48.012;7.862;2023-06-22T13:10:32;28.90;99.90
12303;DHT22;6214;48.012;7.862;2023-06-22T13:12:59;29.00;99.90
12303;DHT22;6214;48.012;7.862;2023-06-22T13:15:30;29.00;99.90
12303;DHT22;6214;48.012;7.862;2023-06-22T13:17:58;29.10;99.90
12303;DHT22;6214;48.012;7.862;2023-06-22T13:20:25;29.10;99.90
12303;DHT22;6214;48.012;7.862;2023-06-22T13:22:51;29.10;99.90
12303;DHT22;6214;48.012;7.862;2023-06-22T13:25:20;29.00;99.90
12303;DHT22;6214;48.012;7.862;2023-06-22T13:27:49;28.80;99.90
12303;DHT22;6214;48.012;7.862;2023-06-22T13:30:16;28.70;99.90
12303;DHT22;6214;48.012;7.862;2023-06-22T13:32:43;28.60;99.90
12303;DHT22;6214;48.012;7.862;2023-06-22T13:35:11;28.40;99.90
12303;DHT22;6214;48.012;7.862;2023-06-22T13:37:38;28.30;99.90
12303;DHT22;6214;48.012;7.862;2023-06-22T13:40:06;28.20;99.90
12303;DHT22;6214;48.012;7.862;2023-06-22T13:42:33;28.20;99.90
12303;DHT22;6214;48.012;7.862;2023-06-22T13:45:00;28.10;99.90
12303;DHT22;6214;48.012;7.862;2023-06-22T13:47:27;28.30;99.90
12303;DHT22;6214;48.012;7.862;2023-06-22T13:49:57;28.30;99.90
12303;DHT22;6214;48.012;7.862;2023-06-22T13:52:27;28.20;99.90
12303;DHT22;6214;48.012;7.862;2023-06-22T13:54:54;28.10;99.90
12303;DHT22;6214;48.012;7.862;2023-06-22T13:57:21;27.90;99.90
12303;DHT22;6214;48.012;7.862;2023-06-22T13:59:48;27.70;99.90
12303;DHT22;6214;48.012;7.862;2023-06-22T14:02:15;27.60;99.90
12303;DHT22;6214;48.012;7.862;2023-06-22T14:04:42;27.60;99.90
12303;DHT22;6214;48.012;7.862;2023-06-22T14:07:08;27.50;99.90
12303;DHT22;6214;48.012;7.862;2023-06-22T14:09:35;27.50;99.90
12303;DHT22;6214;48.012;7.862;2023-06-22T14:12:07;27.50;99.90
12303;DHT22;6214;48.012;7.862;2023-06-22T14:14:34;27.40;99.90
12303;DHT22;6214;48.012;7.862;2023-06-22T14:17:01;27.40;99.90
12303;DHT22;6214;48.012;7.862;2023-06-22T14:19:28;27.40;99.90
12303;DHT22;6214;48.012;7.862;2023-06-22T14:21:55;27.40;99.90
12303;DHT22;6214;48.012;7.862;2023-06-22T14:24:23;27.30;99.90
12303;DHT22;6214;48.012;7.862;2023-06-22T14:26:54;27.50;99.90
12303;DHT22;6214;48.012;7.862;2023-06-22T14:29:22;27.60;99.90
12303;DHT22;6214;48.012;7.862;2023-06-22T14:31:49;27.70;99.90
12303;DHT22;6214;48.012;7.862;2023-06-22T14:34:17;27.90;99.90
12303;DHT22;6214;48.012;7.862;2023-06-22T14:36:43;27.90;99.90
12303;DHT22;6214;48.012;7.862;2023-06-22T14:39:10;28.00;99.90
12303;DHT22;6214;48.012;7.862;2023-06-22T14:41:37;28.00;99.90
12303;DHT22;6214;48.012;7.862;2023-06-22T14:44:05;27.90;99.90
12303;DHT22;6214;48.012;7.862;2023-06-22T14:46:31;28.10;99.90
12303;DHT22;6214;48.012;7.862;2023-06-22T14:48:58;28.20;99.90
12303;DHT22;6214;48.012;7.862;2023-06-22T14:51:25;28.50;99.90
12303;DHT22;6214;48.012;7.862;2023-06-22T14:53:53;28.70;99.90
12303;DHT22;6214;48.012;7.862;2023-06-22T14:56:20;28.90;99.90
12303;DHT22;6214;48.012;7.862;2023-06-22T14:58:47;28.90;99.90
12303;DHT22;6214;48.012;7.862;2023-06-22T15:01:15;28.80;99.90
12303;DHT22;6214;48.012;7.862;2023-06-22T15:03:43;28.70;99.90
12303;DHT22;6214;48.012;7.862;2023-06-22T15:06:10;28.60;99.90
12303;DHT22;6214;48.012;7.862;2023-06-22T15:08:38;28.40;99.90
12303;DHT22;6214;48.012;7.862;2023-06-22T15:11:05;28.30;99.90
12303;DHT22;6214;48.012;7.862;2023-06-22T15:13:33;28.30;99.90
12303;DHT22;6214;48.012;7.862;2023-06-22T15:16:02;28.40;99.90
12303;DHT22;6214;48.012;7.862;2023-06-22T15:18:32;28.60;99.90
12303;DHT22;6214;48.012;7.862;2023-06-22T15:21:03;28.60;99.90
12303;DHT22;6214;48.012;7.862;2023-06-22T15:23:31;28.70;99.90
12303;DHT22;6214;48.012;7.862;2023-06-22T15:26:01;28.90;99.90
12303;DHT22;6214;48.012;7.862;2023-06-22T15:28:29;29.00;99.90
12303;DHT22;6214;48.012;7.862;2023-06-22T15:30:56;29.10;99.90
12303;DHT22;6214;48.012;7.862;2023-06-22T15:33:24;29.20;99.90
12303;DHT22;6214;48.012;7.862;2023-06-22T15:35:51;29.30;99.90
12303;DHT22;6214;48.012;7.862;2023-06-22T15:38:19;29.40;99.90
12303;DHT22;6214;48.012;7.862;2023-06-22T15:40:46;29.40;99.90
12303;DHT22;6214;48.012;7.862;2023-06-22T15:43:13;29.40;99.90
12303;DHT22;6214;48.012;7.862;2023-06-22T15:45:41;29.40;99.90
12303;DHT22;6214;48.012;7.862;2023-06-22T15:48:08;29.30;99.90
12303;DHT22;6214;48.012;7.862;2023-06-22T15:50:35;29.30;99.90